createdAt,value
2022-11-02T00:02:39.203Z,7.90
2022-11-02T00:07:43.348Z,8.00
2022-11-02T00:12:50.786Z,8.00
2022-11-02T00:17:59.885Z,8.00
2022-11-02T00:23:11.002Z,7.90
2022-11-02T00:28:16.810Z,7.70
2022-11-02T00:33:20.087Z,7.50
2022-11-02T00:38:23.338Z,7.30
2022-11-02T00:43:28.043Z,7.30
2022-11-02T00:48:31.336Z,7.30
2022-11-02T00:53:34.609Z,7.30
2022-11-02T00:58:39.428Z,7.40
2022-11-02T01:03:43.823Z,7.40
2022-11-02T01:08:47.222Z,7.50
2022-11-02T01:13:54.469Z,7.60
2022-11-02T01:18:58.547Z,7.80
2022-11-02T01:24:02.141Z,7.90
2022-11-02T01:29:06.825Z,8.10
2022-11-02T01:34:10.085Z,8.10
2022-11-02T01:39:14.684Z,8.20
2022-11-02T01:44:33.563Z,8.20
2022-11-02T01:49:46.349Z,8.20
2022-11-02T01:54:54.848Z,8.20
2022-11-02T02:00:05.594Z,8.30
2022-11-02T02:05:12.019Z,8.20
2022-11-02T02:10:16.559Z,8.10
2022-11-02T02:15:23.109Z,7.90
2022-11-02T02:20:43.199Z,7.70
2022-11-02T02:26:06.864Z,7.40
2022-11-02T02:31:16.594Z,7.30
2022-11-02T02:36:25.368Z,7.20
2022-11-02T02:41:38.948Z,7.10
2022-11-02T02:46:53.584Z,7.10
2022-11-02T02:52:00.424Z,7.00
2022-11-02T02:57:10.065Z,6.90
2022-11-02T03:02:22.529Z,6.80
2022-11-02T03:07:32.905Z,6.80
2022-11-02T03:12:51.498Z,6.80
2022-11-02T03:18:07.498Z,6.70
2022-11-02T03:23:19.217Z,6.70
2022-11-02T03:28:28.001Z,6.70
2022-11-02T03:33:36.889Z,6.60
2022-11-02T03:38:46.361Z,6.60
2022-11-02T03:43:53.041Z,6.50
2022-11-02T03:48:58.196Z,6.50
2022-11-02T03:54:06.730Z,6.50
2022-11-02T03:59:10.137Z,6.50
2022-11-02T04:04:15.244Z,6.40
2022-11-02T04:09:18.795Z,6.30
2022-11-02T04:14:40.260Z,6.20
2022-11-02T04:19:48.679Z,6.10
2022-11-02T04:25:10.513Z,6.10
2022-11-02T04:30:14.373Z,6.00
2022-11-02T04:35:19.142Z,6.00
2022-11-02T04:40:22.447Z,6.00
2022-11-02T04:45:25.663Z,6.20
2022-11-02T04:50:31.873Z,6.20
2022-11-02T04:55:36.540Z,6.10
2022-11-02T05:00:39.760Z,6.10
2022-11-02T05:05:44.898Z,6.10
2022-11-02T05:10:48.193Z,5.90
2022-11-02T05:15:51.681Z,5.70
2022-11-02T05:20:59.585Z,5.60
2022-11-02T05:26:04.855Z,5.60
2022-11-02T05:31:08.225Z,5.50
2022-11-02T05:36:12.936Z,5.50
2022-11-02T05:41:16.354Z,5.50
2022-11-02T05:46:19.991Z,5.50
2022-11-02T05:51:24.654Z,5.50
2022-11-02T05:56:28.211Z,5.40
2022-11-02T06:01:31.514Z,5.40
2022-11-02T06:06:36.196Z,5.50
2022-11-02T06:11:39.469Z,5.50
2022-11-02T06:16:42.624Z,5.50
2022-11-02T06:21:48.534Z,5.40
2022-11-02T06:26:52.262Z,5.30
2022-11-02T06:31:55.588Z,5.40
2022-11-02T06:37:00.198Z,5.50
2022-11-02T06:42:03.516Z,5.70
2022-11-02T06:47:06.827Z,6.00
2022-11-02T06:52:11.496Z,6.50
2022-11-02T06:57:14.692Z,7.00
2022-11-02T07:02:17.980Z,7.50
2022-11-02T07:07:22.733Z,7.70
2022-11-02T07:12:25.949Z,7.90
2022-11-02T07:17:32.188Z,8.00
2022-11-02T07:22:37.085Z,8.30
2022-11-02T07:27:40.995Z,8.50
2022-11-02T07:32:45.571Z,8.70
2022-11-02T07:37:58.448Z,8.80
2022-11-02T07:43:02.449Z,9.00
2022-11-02T07:48:06.160Z,9.20
2022-11-02T07:53:10.982Z,9.50
2022-11-02T07:58:14.912Z,9.70
2022-11-02T08:03:18.251Z,9.90
2022-11-02T08:08:24.293Z,10.20
2022-11-02T08:13:32.815Z,10.40
2022-11-02T08:18:36.190Z,10.90
2022-11-02T08:23:40.830Z,11.40
2022-11-02T08:28:44.106Z,11.80
2022-11-02T08:33:47.541Z,11.80
2022-11-02T08:38:52.207Z,12.00
2022-11-02T08:44:00.868Z,12.30
2022-11-02T08:49:20.086Z,12.20
2022-11-02T08:54:27.605Z,12.20
2022-11-02T08:59:40.400Z,12.20
2022-11-02T09:04:43.669Z,12.50
2022-11-02T09:09:48.265Z,12.90
2022-11-02T09:14:51.500Z,13.20
2022-11-02T09:19:54.851Z,13.30
2022-11-02T09:24:59.685Z,13.40
2022-11-02T09:30:03.691Z,13.60
2022-11-02T09:35:10.573Z,14.60
2022-11-02T09:40:16.213Z,15.10
2022-11-02T09:45:20.841Z,15.20
2022-11-02T09:50:28.835Z,15.20
2022-11-02T09:55:37.354Z,14.70
2022-11-02T10:00:42.834Z,14.50
2022-11-02T10:05:54.544Z,14.50
2022-11-02T10:11:18.427Z,14.60
2022-11-02T10:16:25.771Z,14.70
2022-11-02T10:21:34.217Z,14.70
2022-11-02T10:26:43.477Z,14.80
2022-11-02T10:31:48.655Z,14.80
2022-11-02T10:37:00.996Z,15.00
2022-11-02T10:42:40.152Z,15.30
2022-11-02T10:47:54.913Z,15.30
2022-11-02T10:53:27.291Z,15.30
2022-11-02T10:58:29.047Z,14.80
2022-11-02T11:03:33.683Z,14.90
2022-11-02T11:08:41.879Z,14.90
2022-11-02T11:19:42.859Z,15.30
2022-11-02T11:24:46.211Z,15.50
2022-11-02T11:29:57.884Z,15.80
2022-11-02T11:35:04.818Z,15.50
2022-11-02T11:40:19.127Z,15.50
2022-11-02T11:45:24.828Z,15.30
2022-11-02T11:50:31.031Z,15.10
2022-11-02T11:55:34.565Z,15.00
2022-11-02T12:00:37.904Z,14.90
2022-11-02T12:05:57.854Z,14.70
2022-11-02T12:11:22.111Z,14.20
2022-11-02T12:16:36.318Z,14.10
2022-11-02T12:21:51.151Z,14.50
2022-11-02T12:27:11.944Z,14.50
2022-11-02T12:32:28.311Z,14.50
2022-11-02T12:37:46.527Z,14.00
2022-11-02T12:42:57.500Z,14.10
2022-11-02T12:48:03.288Z,14.30
2022-11-02T12:53:25.515Z,14.10
2022-11-02T12:58:31.784Z,13.80
2022-11-02T13:03:44.293Z,13.80
2022-11-02T13:08:53.459Z,13.90
2022-11-02T13:14:01.852Z,13.70
2022-11-02T13:19:06.583Z,13.40
2022-11-02T13:24:16.707Z,13.40
2022-11-02T13:29:26.110Z,13.60
2022-11-02T13:34:34.736Z,14.00
2022-11-02T13:39:43.107Z,14.70
2022-11-02T13:45:15.903Z,15.20
2022-11-02T13:50:22.310Z,15.30
2022-11-02T13:55:34.663Z,15.00
2022-11-02T14:00:45.435Z,14.70
2022-11-02T14:05:51.704Z,14.60
2022-11-02T14:11:24.322Z,14.70
2022-11-02T14:16:48.151Z,15.10
2022-11-02T14:22:14.085Z,15.40
2022-11-02T14:27:31.923Z,15.70
2022-11-02T14:32:50.010Z,15.60
2022-11-02T14:38:27.505Z,15.40
2022-11-02T14:44:04.191Z,15.30
2022-11-02T14:49:16.954Z,15.10
2022-11-02T14:54:22.193Z,14.90
2022-11-02T14:59:33.013Z,14.30
2022-11-02T15:04:37.589Z,14.00
2022-11-02T15:09:56.839Z,13.70
2022-11-02T15:15:29.125Z,13.20
2022-11-02T15:20:34.225Z,12.80
2022-11-02T15:25:40.767Z,12.80
2022-11-02T15:30:50.135Z,12.70
2022-11-02T15:35:55.685Z,12.50
2022-11-02T15:41:15.549Z,12.40
2022-11-02T15:46:33.206Z,12.20
2022-11-02T15:51:43.271Z,12.20
2022-11-02T15:57:00.601Z,12.20
2022-11-02T16:02:19.801Z,12.20
2022-11-02T16:07:33.093Z,12.00
2022-11-02T16:12:46.979Z,11.30
2022-11-02T16:17:52.453Z,10.70
2022-11-02T16:22:58.681Z,10.30
2022-11-02T16:28:13.872Z,10.00
2022-11-02T16:33:18.613Z,9.80
2022-11-02T16:38:23.309Z,9.40
2022-11-02T16:43:28.279Z,9.20
2022-11-02T16:48:37.931Z,9.00
2022-11-02T16:53:41.861Z,8.80
2022-11-02T16:58:49.830Z,8.50
2022-11-02T17:03:55.677Z,8.30
2022-11-02T17:08:58.964Z,8.10
2022-11-02T17:14:02.421Z,7.90
2022-11-02T17:19:07.864Z,7.70
2022-11-02T17:24:38.020Z,7.60
2022-11-02T17:29:41.464Z,7.60
2022-11-02T17:34:55.708Z,7.40
2022-11-02T17:40:02.647Z,7.40
2022-11-02T17:45:25.177Z,7.50
2022-11-02T17:50:31.908Z,7.50
2022-11-02T17:55:37.536Z,7.50
2022-11-02T18:00:42.261Z,7.40
2022-11-02T18:05:50.106Z,7.40
2022-11-02T18:10:54.867Z,7.40
2022-11-02T18:15:58.110Z,7.20
2022-11-02T18:21:02.796Z,7.20
2022-11-02T18:26:12.466Z,7.00
2022-11-02T18:31:15.847Z,6.90
2022-11-02T18:36:20.716Z,6.70
2022-11-02T18:41:30.825Z,6.50
2022-11-02T18:46:34.498Z,6.50
2022-11-02T18:51:52.803Z,6.50
2022-11-02T18:56:57.744Z,6.40
2022-11-02T19:02:01.363Z,6.30
2022-11-02T19:07:24.265Z,6.10
2022-11-02T19:12:29.827Z,6.00
2022-11-02T19:17:33.311Z,6.00
2022-11-02T19:22:37.959Z,5.90
2022-11-02T19:27:49.283Z,6.10
2022-11-02T19:32:54.249Z,6.00
2022-11-02T19:37:59.412Z,5.80
2022-11-02T19:43:03.430Z,5.70
2022-11-02T19:48:07.468Z,5.70
2022-11-02T19:53:13.680Z,5.60
2022-11-02T19:58:17.144Z,5.60
2022-11-02T20:03:26.176Z,5.60
2022-11-02T20:08:30.881Z,5.50
2022-11-02T20:13:35.371Z,5.30
2022-11-02T20:18:40.102Z,5.20
2022-11-02T20:23:51.270Z,5.20
2022-11-02T20:28:55.519Z,5.10
2022-11-02T20:34:00.406Z,5.00
2022-11-02T20:39:07.692Z,5.00
2022-11-02T20:44:10.954Z,4.80
2022-11-02T20:49:21.873Z,4.70
2022-11-02T20:54:39.082Z,4.70
2022-11-02T20:59:42.672Z,4.60
2022-11-02T21:04:46.546Z,4.60
2022-11-02T21:09:51.332Z,4.60
2022-11-02T21:14:54.616Z,4.40
2022-11-02T21:20:13.950Z,4.40
2022-11-02T21:25:22.618Z,4.40
2022-11-02T21:30:27.413Z,4.50
2022-11-02T21:35:30.639Z,4.60
2022-11-02T21:40:35.418Z,4.50
2022-11-02T21:45:38.727Z,4.60
2022-11-02T21:50:42.120Z,4.60
2022-11-02T21:55:46.774Z,4.60
2022-11-02T22:01:07.777Z,4.50
2022-11-02T22:06:11.013Z,4.40
2022-11-02T22:11:18.784Z,4.40
2022-11-02T22:16:25.202Z,4.40
2022-11-02T22:21:30.087Z,4.40
2022-11-02T22:26:36.515Z,4.40
2022-11-02T22:31:41.884Z,4.40
2022-11-02T22:36:46.454Z,4.40
2022-11-02T22:41:51.096Z,4.40
2022-11-02T22:46:54.303Z,4.40
2022-11-02T22:51:57.677Z,4.40
2022-11-02T22:57:02.291Z,4.30
2022-11-02T23:02:05.738Z,4.20
2022-11-02T23:07:09.065Z,4.20
2022-11-02T23:12:13.708Z,4.20
2022-11-02T23:17:17.058Z,4.30
2022-11-02T23:22:34.179Z,4.20
2022-11-02T23:27:54.994Z,4.10
2022-11-02T23:32:58.397Z,3.90
2022-11-02T23:38:07.784Z,3.90
2022-11-02T23:43:12.662Z,3.80
2022-11-02T23:53:41.515Z,3.80
2022-11-02T23:58:47.152Z,3.80
